createdAt,value
2018-04-16T00:00:25.021Z,16.83
2018-04-16T00:02:52.588Z,15.77
2018-04-16T00:05:20.754Z,16.00
2018-04-16T00:07:48.223Z,14.13
2018-04-16T00:10:16.454Z,15.83
2018-04-16T00:12:43.928Z,16.17
2018-04-16T00:15:11.402Z,15.63
2018-04-16T00:17:39.635Z,16.20
2018-04-16T00:20:07.106Z,16.03
2018-04-16T00:22:34.584Z,14.17
2018-04-16T00:25:02.835Z,14.03
2018-04-16T00:27:30.303Z,15.03
2018-04-16T00:29:57.782Z,14.67
2018-04-16T00:32:30.965Z,15.97
2018-04-16T00:35:04.236Z,15.03
2018-04-16T00:37:37.500Z,13.90
2018-04-16T00:40:10.728Z,15.17
2018-04-16T00:42:44.003Z,13.90
2018-04-16T00:45:17.311Z,15.30
2018-04-16T00:47:50.567Z,15.23
2018-04-16T00:50:23.759Z,15.57
2018-04-16T00:52:56.981Z,15.77
2018-04-16T00:55:30.280Z,14.80
2018-04-16T01:01:03.175Z,14.77
2018-04-16T01:03:36.331Z,16.93
2018-04-16T01:06:09.444Z,17.80
2018-04-16T01:08:42.650Z,17.07
2018-04-16T01:11:15.948Z,15.20
2018-04-16T01:13:49.101Z,14.87
2018-04-16T01:16:22.271Z,16.03
2018-04-16T01:18:56.323Z,16.67
2018-04-16T01:21:29.608Z,15.90
2018-04-16T01:24:02.828Z,15.70
2018-04-16T01:26:35.923Z,14.60
2018-04-16T01:29:09.106Z,16.30
2018-04-16T01:31:42.384Z,15.10
2018-04-16T01:34:15.443Z,16.00
2018-04-16T01:36:48.691Z,16.60
2018-04-16T01:39:21.929Z,17.27
2018-04-16T01:41:55.270Z,16.27
2018-04-16T01:44:28.536Z,17.90
2018-04-16T01:47:01.596Z,17.73
2018-04-16T01:49:34.843Z,18.80
2018-04-16T01:52:08.124Z,18.30
2018-04-16T01:54:41.428Z,16.70
2018-04-16T01:57:14.568Z,17.50
2018-04-16T01:59:47.780Z,18.43
2018-04-16T02:02:20.978Z,18.97
2018-04-16T02:04:54.062Z,18.93
2018-04-16T02:07:27.356Z,18.57
2018-04-16T02:10:00.780Z,19.07
2018-04-16T02:12:34.063Z,19.60
2018-04-16T02:15:07.336Z,19.60
2018-04-16T02:17:40.628Z,18.30
2018-04-16T02:20:13.976Z,17.83
2018-04-16T02:22:47.935Z,18.47
2018-04-16T02:25:21.000Z,19.17
2018-04-16T02:27:54.123Z,19.10
2018-04-16T02:30:27.313Z,19.37
2018-04-16T02:33:00.384Z,19.90
2018-04-16T02:35:33.573Z,20.57
2018-04-16T02:38:06.887Z,18.70
2018-04-16T02:40:40.175Z,20.30
2018-04-16T02:43:13.490Z,19.10
2018-04-16T02:45:46.759Z,19.83
2018-04-16T02:48:19.947Z,19.17
2018-04-16T02:50:53.251Z,20.00
2018-04-16T02:53:26.372Z,18.90
2018-04-16T02:55:59.628Z,19.13
2018-04-16T02:58:32.898Z,19.20
2018-04-16T03:01:06.071Z,16.80
2018-04-16T03:03:39.177Z,19.27
2018-04-16T03:06:12.375Z,20.10
2018-04-16T03:08:45.620Z,18.43
2018-04-16T03:11:18.872Z,20.90
2018-04-16T03:13:52.199Z,19.50
2018-04-16T03:16:25.487Z,20.37
2018-04-16T03:18:58.664Z,19.00
2018-04-16T03:21:31.994Z,19.30
2018-04-16T03:24:05.875Z,20.57
2018-04-16T03:26:39.005Z,19.00
2018-04-16T03:32:14.016Z,18.90
2018-04-16T03:34:47.308Z,19.57
2018-04-16T03:37:20.579Z,18.90
2018-04-16T03:39:53.968Z,20.73
2018-04-16T03:42:27.059Z,20.73
2018-04-16T03:45:00.130Z,23.27
2018-04-16T03:47:33.367Z,22.00
2018-04-16T03:50:06.468Z,23.20
2018-04-16T03:52:39.524Z,21.33
2018-04-16T03:58:15.603Z,19.93
2018-04-16T04:00:43.080Z,20.67
2018-04-16T04:03:10.555Z,18.37
2018-04-16T04:05:38.876Z,18.27
2018-04-16T04:08:06.383Z,18.80
2018-04-16T04:10:33.863Z,18.27
2018-04-16T04:13:02.108Z,18.13
2018-04-16T04:15:29.587Z,17.90
2018-04-16T04:17:57.843Z,17.83
2018-04-16T04:20:25.336Z,18.93
2018-04-16T04:23:04.690Z,17.13
2018-04-16T04:25:44.082Z,16.70
2018-04-16T04:28:24.308Z,17.00
2018-04-16T04:30:51.889Z,18.07
2018-04-16T04:33:19.447Z,18.27
2018-04-16T04:35:46.929Z,19.40
2018-04-16T04:38:14.400Z,18.23
2018-04-16T04:40:41.868Z,18.40
2018-04-16T04:43:09.379Z,17.53
2018-04-16T04:45:36.990Z,18.73
2018-04-16T04:48:04.459Z,18.90
2018-04-16T04:50:31.970Z,19.20
2018-04-16T04:53:00.234Z,18.47
2018-04-16T04:55:27.688Z,18.57
2018-04-16T04:57:55.248Z,17.57
2018-04-16T05:00:22.716Z,18.50
2018-04-16T05:02:50.952Z,18.87
2018-04-16T05:05:18.416Z,18.50
2018-04-16T05:07:45.883Z,18.10
2018-04-16T05:10:14.133Z,16.47
2018-04-16T05:12:41.603Z,19.40
2018-04-16T05:15:09.071Z,18.37
2018-04-16T05:17:36.543Z,19.10
2018-04-16T05:20:04.779Z,21.47
2018-04-16T05:22:32.257Z,18.60
2018-04-16T05:24:59.815Z,18.73
2018-04-16T05:27:27.292Z,19.40
2018-04-16T05:29:55.524Z,17.27
2018-04-16T05:32:23.008Z,19.07
2018-04-16T05:34:50.479Z,18.90
2018-04-16T05:37:18.726Z,18.37
2018-04-16T05:39:46.200Z,19.00
2018-04-16T05:42:13.676Z,18.63
2018-04-16T05:44:41.944Z,17.63
2018-04-16T05:47:10.191Z,18.30
2018-04-16T05:49:37.667Z,19.07
2018-04-16T05:52:05.144Z,18.10
2018-04-16T05:54:33.454Z,17.80
2018-04-16T05:57:01.009Z,17.37
2018-04-16T05:59:28.476Z,16.10
2018-04-16T06:01:56.027Z,17.80
2018-04-16T06:04:23.503Z,17.97
2018-04-16T06:06:50.992Z,18.37
2018-04-16T06:09:18.471Z,18.20
2018-04-16T06:11:45.959Z,17.80
2018-04-16T06:14:13.440Z,18.17
2018-04-16T06:16:40.923Z,20.13
2018-04-16T06:19:09.208Z,18.17
2018-04-16T06:21:37.483Z,20.53
2018-04-16T06:24:05.715Z,18.90
2018-04-16T06:26:33.190Z,20.63
2018-04-16T06:29:00.668Z,21.27
2018-04-16T06:31:28.899Z,20.63
2018-04-16T06:33:56.493Z,20.30
2018-04-16T06:36:24.800Z,19.53
2018-04-16T06:38:52.597Z,20.13
2018-04-16T06:41:20.064Z,20.80
2018-04-16T06:43:47.537Z,19.40
2018-04-16T06:46:15.100Z,21.57
2018-04-16T06:48:43.020Z,20.92
2018-04-16T06:51:10.500Z,21.45
2018-04-16T06:53:37.966Z,19.17
2018-04-16T06:56:05.434Z,19.93
2018-04-16T06:58:32.907Z,18.70
2018-04-16T07:01:01.229Z,21.90
2018-04-16T07:03:28.715Z,20.30
2018-04-16T07:05:56.203Z,21.33
2018-04-16T07:08:24.604Z,19.73
2018-04-16T07:10:52.067Z,18.00
2018-04-16T07:13:19.584Z,20.40
2018-04-16T07:15:47.101Z,19.97
2018-04-16T07:18:14.570Z,22.47
2018-04-16T07:20:42.051Z,18.80
2018-04-16T07:23:09.538Z,22.40
2018-04-16T07:25:37.044Z,23.03
2018-04-16T07:28:04.622Z,20.77
2018-04-16T07:30:32.099Z,21.00
2018-04-16T07:33:00.359Z,21.13
2018-04-16T07:35:27.845Z,21.43
2018-04-16T07:37:55.316Z,22.37
2018-04-16T07:40:22.807Z,22.05
2018-04-16T07:42:50.310Z,20.90
2018-04-16T07:45:17.799Z,19.85
2018-04-16T07:47:45.285Z,22.27
2018-04-16T07:50:12.814Z,21.50
2018-04-16T07:52:40.308Z,22.77
2018-04-16T07:55:07.876Z,23.10
2018-04-16T07:57:36.143Z,23.95
2018-04-16T08:00:03.634Z,22.80
2018-04-16T08:02:31.106Z,22.47
2018-04-16T08:04:58.631Z,23.17
2018-04-16T08:07:26.883Z,21.75
2018-04-16T08:09:54.559Z,22.45
2018-04-16T08:12:22.028Z,21.40
2018-04-16T08:14:50.288Z,21.20
2018-04-16T08:17:18.576Z,22.93
2018-04-16T08:19:46.075Z,24.00
2018-04-16T08:22:13.604Z,23.30
2018-04-16T08:24:41.037Z,22.20
2018-04-16T08:27:08.626Z,23.43
2018-04-16T08:29:36.151Z,22.97
2018-04-16T08:32:03.631Z,23.50
2018-04-16T08:34:31.883Z,22.23
2018-04-16T08:36:59.363Z,19.73
2018-04-16T08:39:27.617Z,22.00
2018-04-16T08:41:55.178Z,22.83
2018-04-16T08:44:22.635Z,22.10
2018-04-16T08:46:50.144Z,22.40
2018-04-16T08:49:17.651Z,22.80
2018-04-16T08:51:45.121Z,22.13
2018-04-16T08:54:13.351Z,21.07
2018-04-16T08:56:40.841Z,22.17
2018-04-16T08:59:08.300Z,23.63
2018-04-16T09:01:35.773Z,21.90
2018-04-16T09:04:04.013Z,21.13
2018-04-16T09:06:31.491Z,23.17
2018-04-16T09:08:58.967Z,23.10
2018-04-16T09:11:27.214Z,23.83
2018-04-16T09:13:54.689Z,24.23
2018-04-16T09:16:22.923Z,21.90
2018-04-16T09:18:50.395Z,22.70
2018-04-16T09:21:17.867Z,22.93
2018-04-16T09:23:45.427Z,22.20
2018-04-16T09:26:12.943Z,24.37
2018-04-16T09:28:40.439Z,22.00
2018-04-16T09:31:07.965Z,23.50
2018-04-16T09:33:35.443Z,24.57
2018-04-16T09:36:02.931Z,24.90
2018-04-16T09:38:31.180Z,24.73
2018-04-16T09:40:58.660Z,23.00
2018-04-16T09:43:26.912Z,22.90
2018-04-16T09:45:54.391Z,24.17
2018-04-16T09:48:22.619Z,23.00
2018-04-16T09:50:50.104Z,23.83
2018-04-16T09:53:17.571Z,22.27
2018-04-16T09:55:45.092Z,25.20
2018-04-16T09:58:12.563Z,23.00
2018-04-16T10:00:45.868Z,24.10
2018-04-16T10:03:18.130Z,22.33
2018-04-16T10:05:45.619Z,23.77
2018-04-16T10:08:13.868Z,21.83
2018-04-16T10:10:41.354Z,23.10
2018-04-16T10:13:09.596Z,22.67
2018-04-16T10:15:37.169Z,22.97
2018-04-16T10:18:06.195Z,24.20
2018-04-16T10:20:33.639Z,24.00
2018-04-16T10:23:01.123Z,25.50
2018-04-16T10:25:28.680Z,25.43
2018-04-16T10:27:56.167Z,23.93
2018-04-16T10:30:23.646Z,22.60
2018-04-16T10:32:51.924Z,24.97
2018-04-16T10:35:19.408Z,23.17
2018-04-16T10:37:46.908Z,26.17
2018-04-16T10:40:14.372Z,25.00
2018-04-16T10:42:41.954Z,24.40
2018-04-16T10:45:10.187Z,24.97
2018-04-16T10:47:37.687Z,25.07
2018-04-16T10:50:05.178Z,22.37
2018-04-16T10:52:32.653Z,24.03
2018-04-16T10:55:00.155Z,24.50
2018-04-16T10:57:27.618Z,24.30
2018-04-16T10:59:55.079Z,24.70
2018-04-16T11:02:22.676Z,23.30
2018-04-16T11:04:50.138Z,22.20
2018-04-16T11:07:17.643Z,23.53
2018-04-16T11:09:45.111Z,23.23
2018-04-16T11:12:13.369Z,24.90
2018-04-16T11:14:40.837Z,24.17
2018-04-16T11:17:08.316Z,22.47
2018-04-16T11:19:36.559Z,23.33
2018-04-16T11:22:04.117Z,22.77
2018-04-16T11:24:31.676Z,21.30
2018-04-16T11:26:59.964Z,20.73
2018-04-16T11:29:27.424Z,19.47
2018-04-16T11:31:55.672Z,22.03
2018-04-16T11:34:23.236Z,20.97
2018-04-16T11:36:52.223Z,18.03
2018-04-16T11:39:19.707Z,20.23
2018-04-16T11:41:48.066Z,16.40
2018-04-16T11:44:15.591Z,18.63
2018-04-16T11:46:43.048Z,17.97
2018-04-16T11:49:10.518Z,18.50
2018-04-16T11:51:38.256Z,16.27
2018-04-16T11:54:05.727Z,17.67
2018-04-16T11:56:33.187Z,16.70
2018-04-16T11:59:00.659Z,16.67
2018-04-16T12:01:28.126Z,17.40
2018-04-16T12:03:55.592Z,15.90
2018-04-16T12:06:23.151Z,16.37
2018-04-16T12:08:50.628Z,13.73
2018-04-16T12:11:18.855Z,15.00
2018-04-16T12:13:46.442Z,15.30
2018-04-16T12:16:13.911Z,17.40
2018-04-16T12:18:42.135Z,16.60
2018-04-16T12:21:09.607Z,16.10
2018-04-16T12:23:37.081Z,16.13
2018-04-16T12:26:04.559Z,18.90
2018-04-16T12:28:32.787Z,16.97
2018-04-16T12:31:00.263Z,16.20
2018-04-16T12:33:27.885Z,16.23
2018-04-16T12:35:55.355Z,16.83
2018-04-16T12:38:22.864Z,18.13
2018-04-16T12:40:51.104Z,18.03
2018-04-16T12:43:18.577Z,18.47
2018-04-16T12:45:46.146Z,18.50
2018-04-16T12:48:13.611Z,18.47
2018-04-16T12:50:41.853Z,17.17
2018-04-16T12:53:09.339Z,16.90
2018-04-16T12:55:36.803Z,19.43
2018-04-16T12:58:05.051Z,18.13
2018-04-16T13:00:34.079Z,18.57
2018-04-16T13:03:02.324Z,19.07
2018-04-16T13:05:31.303Z,19.97
2018-04-16T13:07:58.767Z,18.73
2018-04-16T13:10:26.236Z,17.60
2018-04-16T13:12:53.707Z,17.47
2018-04-16T13:15:21.951Z,18.63
2018-04-16T13:17:49.519Z,19.03
2018-04-16T13:20:17.115Z,18.67
2018-04-16T13:22:44.592Z,19.20
2018-04-16T13:25:12.079Z,20.00
2018-04-16T13:27:39.571Z,19.30
2018-04-16T13:30:07.796Z,19.50
2018-04-16T13:32:35.267Z,17.70
2018-04-16T13:35:02.735Z,19.00
2018-04-16T13:37:31.712Z,18.43
2018-04-16T13:39:59.288Z,17.30
2018-04-16T13:42:26.761Z,18.33
2018-04-16T13:44:54.229Z,19.40
2018-04-16T13:47:22.483Z,21.23
2018-04-16T13:49:49.952Z,21.13
2018-04-16T13:52:18.198Z,21.27
2018-04-16T13:54:45.655Z,21.73
2018-04-16T13:57:13.127Z,22.50
2018-04-16T13:59:40.588Z,20.80
2018-04-16T14:02:08.135Z,22.73
2018-04-16T14:04:35.600Z,22.77
2018-04-16T14:07:04.579Z,22.70
2018-04-16T14:09:32.151Z,23.17
2018-04-16T14:11:59.640Z,25.17
2018-04-16T14:14:27.111Z,23.10
2018-04-16T14:16:54.588Z,24.37
2018-04-16T14:19:22.069Z,25.20
2018-04-16T14:21:49.636Z,25.30
2018-04-16T14:24:17.158Z,23.83
2018-04-16T14:26:45.360Z,23.80
2018-04-16T14:29:13.612Z,25.80
2018-04-16T14:31:41.103Z,26.93
2018-04-16T14:34:08.594Z,26.20
2018-04-16T14:36:36.060Z,25.53
2018-04-16T14:39:03.591Z,26.83
2018-04-16T14:41:31.952Z,25.87
2018-04-16T14:43:59.459Z,28.50
2018-04-16T14:46:27.070Z,27.80
2018-04-16T14:48:54.535Z,26.40
2018-04-16T14:51:22.775Z,28.90
2018-04-16T14:53:50.255Z,28.20
2018-04-16T14:56:17.815Z,27.40
2018-04-16T14:58:45.376Z,25.80
2018-04-16T15:01:12.851Z,30.10
2018-04-16T15:03:41.083Z,29.63
2018-04-16T15:06:08.556Z,29.03
2018-04-16T15:08:36.030Z,30.50
2018-04-16T15:11:04.280Z,30.23
2018-04-16T15:13:31.911Z,29.70
2018-04-16T15:15:59.396Z,30.57
2018-04-16T15:18:26.876Z,29.50
2018-04-16T15:20:54.339Z,30.23
2018-04-16T15:23:22.631Z,30.53
2018-04-16T15:25:50.176Z,30.10
2018-04-16T15:28:17.603Z,30.00
2018-04-16T15:30:45.076Z,30.73
2018-04-16T15:33:12.552Z,28.20
2018-04-16T15:35:41.807Z,31.83
2018-04-16T15:38:09.286Z,31.27
2018-04-16T15:40:36.765Z,30.60
2018-04-16T15:43:05.020Z,29.43
2018-04-16T15:45:32.490Z,28.67
2018-04-16T15:48:00.742Z,30.23
2018-04-16T15:50:28.224Z,29.87
2018-04-16T15:52:56.463Z,28.10
2018-04-16T15:55:24.031Z,31.67
2018-04-16T15:57:51.511Z,29.90
2018-04-16T16:00:19.760Z,29.73
2018-04-16T16:02:47.248Z,28.87
2018-04-16T16:05:15.499Z,28.83
2018-04-16T16:07:42.985Z,28.83
2018-04-16T16:10:11.232Z,27.63
2018-04-16T16:12:38.717Z,28.07
2018-04-16T16:15:07.085Z,30.97
2018-04-16T16:17:34.519Z,28.87
2018-04-16T16:20:02.086Z,29.33
2018-04-16T16:22:29.555Z,29.77
2018-04-16T16:24:57.799Z,29.47
2018-04-16T16:27:25.375Z,29.30
2018-04-16T16:29:52.860Z,28.23
2018-04-16T16:32:21.123Z,30.80
2018-04-16T16:34:49.359Z,31.37
2018-04-16T16:37:16.836Z,27.93
2018-04-16T16:39:44.335Z,31.03
2018-04-16T16:42:11.805Z,29.47
2018-04-16T16:44:39.292Z,32.67
2018-04-16T16:47:06.867Z,32.43
2018-04-16T16:49:34.427Z,33.10
2018-04-16T16:52:01.995Z,31.97
2018-04-16T16:54:29.475Z,29.70
2018-04-16T16:56:57.713Z,31.00
2018-04-16T16:59:25.212Z,28.30
2018-04-16T17:01:52.704Z,27.77
2018-04-16T17:04:20.245Z,30.60
2018-04-16T17:06:47.722Z,31.00
2018-04-16T17:09:15.188Z,30.63
2018-04-16T17:11:42.671Z,28.23
2018-04-16T17:14:10.911Z,30.23
2018-04-16T17:16:38.407Z,29.97
2018-04-16T17:19:06.639Z,26.63
2018-04-16T17:21:34.119Z,28.73
2018-04-16T17:24:01.690Z,27.17
2018-04-16T17:26:29.168Z,31.77
2018-04-16T17:28:57.418Z,28.90
2018-04-16T17:31:24.975Z,29.13
2018-04-16T17:33:52.452Z,31.00
2018-04-16T17:36:20.700Z,30.00
2018-04-16T17:38:48.159Z,29.27
2018-04-16T17:41:15.639Z,30.47
2018-04-16T17:43:43.887Z,29.13
2018-04-16T17:46:11.361Z,30.97
2018-04-16T17:48:39.603Z,29.17
2018-04-16T17:51:07.103Z,31.13
2018-04-16T17:53:35.331Z,33.40
2018-04-16T17:56:02.815Z,30.80
2018-04-16T17:58:30.295Z,31.00
2018-04-16T18:00:58.552Z,31.20
2018-04-16T18:03:26.103Z,32.77
2018-04-16T18:05:53.567Z,29.47
2018-04-16T18:08:21.043Z,31.60
2018-04-16T18:10:49.272Z,30.57
2018-04-16T18:13:16.753Z,32.13
2018-04-16T18:15:44.312Z,31.70
2018-04-16T18:18:11.875Z,31.27
2018-04-16T18:20:39.342Z,30.70
2018-04-16T18:23:06.815Z,30.47
2018-04-16T18:25:34.287Z,31.50
2018-04-16T18:28:01.772Z,30.60
2018-04-16T18:30:29.259Z,30.47
2018-04-16T18:32:56.823Z,30.20
2018-04-16T18:35:24.291Z,30.30
2018-04-16T18:37:52.536Z,31.97
2018-04-16T18:40:19.995Z,32.90
2018-04-16T18:42:47.488Z,31.13
2018-04-16T18:45:15.028Z,31.67
2018-04-16T18:47:42.493Z,30.17
2018-04-16T18:50:10.752Z,32.67
2018-04-16T18:52:38.311Z,32.70
2018-04-16T18:55:05.777Z,31.30
2018-04-16T18:57:33.252Z,32.30
2018-04-16T19:00:01.492Z,33.93
2018-04-16T19:02:28.983Z,32.40
2018-04-16T19:04:57.230Z,29.13
2018-04-16T19:07:24.734Z,29.93
2018-04-16T19:09:52.956Z,30.17
2018-04-16T19:12:20.527Z,30.80
2018-04-16T19:14:48.035Z,30.63
2018-04-16T19:17:15.517Z,30.40
2018-04-16T19:19:42.995Z,32.17
2018-04-16T19:22:11.245Z,29.80
2018-04-16T19:24:38.732Z,31.37
2018-04-16T19:27:11.941Z,29.80
2018-04-16T19:29:40.197Z,30.30
2018-04-16T19:32:07.670Z,28.97
2018-04-16T19:34:41.563Z,31.77
2018-04-16T19:37:09.141Z,30.23
2018-04-16T19:39:37.471Z,31.23
2018-04-16T19:42:10.612Z,29.90
2018-04-16T19:44:38.092Z,30.90
2018-04-16T19:47:05.565Z,29.83
2018-04-16T19:49:38.758Z,31.10
2018-04-16T19:52:06.259Z,32.10
2018-04-16T19:54:34.506Z,29.23
2018-04-16T19:57:07.609Z,32.43
2018-04-16T19:59:35.174Z,33.23
2018-04-16T20:02:08.316Z,30.90
2018-04-16T20:04:35.808Z,30.80
2018-04-16T20:07:04.057Z,33.90
2018-04-16T20:09:31.548Z,31.20
2018-04-16T20:11:59.019Z,31.43
2018-04-16T20:14:27.268Z,29.97
2018-04-16T20:16:54.748Z,31.13
2018-04-16T20:19:23.004Z,31.50
2018-04-16T20:21:50.488Z,29.70
2018-04-16T20:24:17.960Z,31.37
2018-04-16T20:26:45.432Z,31.70
2018-04-16T20:29:12.899Z,30.80
2018-04-16T20:31:40.381Z,31.47
2018-04-16T20:34:07.855Z,29.00
2018-04-16T20:36:35.414Z,29.80
2018-04-16T20:39:03.663Z,31.17
2018-04-16T20:41:31.186Z,33.67
2018-04-16T20:43:58.704Z,29.90
2018-04-16T20:46:26.211Z,29.00
2018-04-16T20:48:53.687Z,31.67
2018-04-16T20:51:21.170Z,30.87
2018-04-16T20:53:48.652Z,32.10
2018-04-16T20:56:16.899Z,30.53
2018-04-16T20:58:44.467Z,30.97
2018-04-16T21:01:12.028Z,32.97
2018-04-16T21:03:39.535Z,33.07
2018-04-16T21:06:07.040Z,30.47
2018-04-16T21:08:34.508Z,30.70
2018-04-16T21:11:02.754Z,30.40
2018-04-16T21:13:30.235Z,31.97
2018-04-16T21:15:57.700Z,30.57
2018-04-16T21:18:25.939Z,31.57
2018-04-16T21:20:53.399Z,28.87
2018-04-16T21:23:20.929Z,33.47
2018-04-16T21:25:48.435Z,32.40
2018-04-16T21:28:15.967Z,30.00
2018-04-16T21:30:43.419Z,31.57
2018-04-16T21:33:10.904Z,34.47
2018-04-16T21:35:38.371Z,30.60
2018-04-16T21:38:06.604Z,34.87
2018-04-16T21:40:34.095Z,31.53
2018-04-16T21:43:01.607Z,31.93
2018-04-16T21:45:29.117Z,35.20
2018-04-16T21:47:56.587Z,32.43
2018-04-16T21:50:24.828Z,33.90
2018-04-16T21:52:52.315Z,30.60
2018-04-16T21:55:20.555Z,35.43
2018-04-16T21:57:48.147Z,32.50
2018-04-16T22:00:16.375Z,32.67
2018-04-16T22:02:43.859Z,31.10
2018-04-16T22:05:11.356Z,34.50
2018-04-16T22:07:38.828Z,33.90
2018-04-16T22:10:06.356Z,35.00
2018-04-16T22:12:34.608Z,33.50
2018-04-16T22:15:02.092Z,33.77
2018-04-16T22:17:30.319Z,32.90
2018-04-16T22:19:57.806Z,32.07
2018-04-16T22:22:25.283Z,32.03
2018-04-16T22:24:53.535Z,33.43
2018-04-16T22:27:21.014Z,34.33
2018-04-16T22:29:49.259Z,35.33
2018-04-16T22:32:16.728Z,35.97
2018-04-16T22:34:44.207Z,32.53
2018-04-16T22:37:12.459Z,32.27
2018-04-16T22:39:39.936Z,32.47
2018-04-16T22:42:08.167Z,34.63
2018-04-16T22:44:35.715Z,33.20
2018-04-16T22:47:03.175Z,33.30
2018-04-16T22:49:30.710Z,33.80
2018-04-16T22:51:58.189Z,34.87
2018-04-16T22:54:25.685Z,32.57
2018-04-16T22:56:53.920Z,32.77
2018-04-16T22:59:21.404Z,33.60
2018-04-16T23:01:48.967Z,34.70
2018-04-16T23:04:16.456Z,35.20
2018-04-16T23:06:43.979Z,34.57
2018-04-16T23:09:11.539Z,31.57
2018-04-16T23:11:39.008Z,33.87
2018-04-16T23:14:07.379Z,35.00
2018-04-16T23:16:34.922Z,33.10
2018-04-16T23:19:02.472Z,33.60
2018-04-16T23:21:29.951Z,33.10
2018-04-16T23:23:57.496Z,34.30
2018-04-16T23:26:24.984Z,35.90
2018-04-16T23:28:53.218Z,33.90
2018-04-16T23:31:20.684Z,35.00
2018-04-16T23:33:48.243Z,34.00
2018-04-16T23:36:15.730Z,36.23
2018-04-16T23:38:43.955Z,32.37
2018-04-16T23:41:11.435Z,33.50
2018-04-16T23:43:38.911Z,32.70
2018-04-16T23:46:07.187Z,31.63
2018-04-16T23:48:35.488Z,34.73
2018-04-16T23:51:02.950Z,33.10
2018-04-16T23:53:30.459Z,33.70
2018-04-16T23:55:57.934Z,33.27
2018-04-16T23:58:26.161Z,33.03
